Colonie, New York
Current Conditions -  °F | °C
As of 6:51 AM on Friday 19 Dec 2014 (Local Time) from KALB Reporting Station
Overcast Overcast  
Wind Chill: 19°   Ceiling: 4500
Heat Index: 31°   Visibility: 10mi
Dew Point: 20°   Wind: 17mph
Humidity: 64%   Direction: 300°WNW
Pressure: 30"   Gusts: 26mph
Location:  42.7187°N, 73.8257°W
Report Text: KALB 191151Z 30015G23KT 10SM FEW025 OVC045 M01/M07 A3000 RMK AO2 SLP164 4/001 T10061067 10006 21006 53014
Loading
Personal Weather Stations






























Interactive Weather Map New forecast layout! Learn more

10-Day Weather Forecast

Advertisements
Track Severe Weather on mobile